Soldotna, AK

6:51 PM AKDT on September 17, 2014 (GMT -0800)
Big River Lakes | Change Station
CLOSE
Current Station
Airport
Location: Big River Lakes,
Elevation: 39 ft
Nearby Weather Stations

Elev 39 ft 60.82 °N, 152.30 °W | Updated 772 days ago

Rain
Rain
46 °F
Feels Like 46 °F
N
10
Wind Variable Wind from North
Gusts 15 mph

Today
High -- | Low -- °F
--% Chance of Precip.
Yesterday
High -- | Low -- °F
Precip. -- in
7:37 AM 8:18 PM
Waning Crescent, 31% visible
Pressure 29.89 in
Visibility 30.0 miles
Clouds Few 10000 ft
Dew Point 46 °F
Humidity 98%
Rainfall 0.00 in
Snow Depth 2 in , 0 in , 0 in
UV 1 out of 12
Pollen Not available.
Air Quality Not available.
Flu Activity Not available.
METAR PALV 061659Z 00000KT 30SM FEW100 11/08 A2989 RMK EST PASS OPN NOSPECI

More Conditions Fewer Conditions

Pressure 29.89 in
Visibility 30.0 miles
Clouds Few 10000 ft
Dew Point 46 °F
Humidity 98%
Rainfall 0.00 in
Snow Depth 2 in , 0 in , 0 in
UV 1 out of 12
Pollen Not available.
Air Quality Not available.
Flu Activity Not available.
METAR PALV 061659Z 00000KT 30SM FEW100 11/08 A2989 RMK EST PASS OPN NOSPECI

More Conditions Fewer Conditions

10-Day Weather Forecast

Almanac

Astronomy

Sep. 17, 2014 Rise Set
Actual Time 7:37 AM AKDT 8:18 PM AKDT
Civil Twilight 6:54 AM AKDT 9:01 PM AKDT
Nautical Twilight 6:01 AM AKDT 9:53 PM AKDT
Astronomical Twilight 5:02 AM AKDT 10:51 PM AKDT
Moon 12:36 AM AKDT (9/17) 5:40 PM AKDT (9/17)
Length of Visible Light 14h 07m
Length of Day
12h 41m
Tomorrow will be 5m 30s shorter.
Waning Crescent, 31% of the Moon is Illuminated
Today
Waning Crescent
Sep 24
New
Oct 1
First Quarter
Oct 8
Full
Oct 15
Last Quarter

Today's Extremes

State Highs State Lows

Community

WunderPhotos

Upload Photos

1,754,268 photos uploaded!

Nearby

Snow Depth

Station Depth Elevation
Atigun Pass 2 in 4800 ft
Long Lake 0 in 820 ft
Granite Creek 0 in 1240 ft
Nuka Glacier 164 in 1250 ft
Port Graham 0 in 300 ft

Earthquake Activity

City Distance Mag. Time & Date
No recent earthquake activity has been reported nearby.
Minimum magnitude displayed is 2.5.

Coastal Water Temperatures

Place Temperature
No Stations Reporting

Nearby Weather Stations